Strona główna
METAR-TAF:

METAR-TAF

Lotnisko :

Blacksburg, Wirginia, Stany Zjednoczone

Szerokość geograficzna: 37-13N, Długość geograficzna: 080-25W, wysokość: 650 m

Aktualna obserwacja pogody

Raport powstał 24 minut temu, godzina 05:55 UTC
Cisza
Temperatura 12°C
Wilgotność 67%
Ciśnienie 1026 hPa
Widzialność: 16.1 km
bezchmurnie

METAR: KBCB 010555Z AUTO 00000KT 10SM CLR 12/06 A3030 RMK AO2 T01150064 10195 20115

czas: 02:19 (06:19 UTC)

Prognoza

Raport powstał 56 minut temu, godzina 05:23 UTC
Prognoza ważna od 01 godzina 06 UTC do 02 godzina 06 UTC
Wiatr 3 kt z kierunków zmiennych
Widzialność: 10 km
bezchmurnie
Od 01 godzina 1900 UTC
Wiatr 5 kt od zachód
Widzialność: 10 km
Mało chmury na wysokości 5000 ft

TAF: KBCB 010523Z 0106/0206 VRB03KT P6SM SKC FM011900 27005KT P6SM FEW050

Obserwacja i prognoza pogody dla ponad 4000 lotnisk (raport METAR i TAF).

Dostępne stacje oznaczono żółtymi i czerwonymi punktami na mapie.

Najedź kursorem aby zobaczyć nazwę stacji.

Kliknij aby zobaczyć obserwacje i prognozy pogody.

Aby zmienić mapę: kliknij na zielony przycisk z czarnym krzyżykiem, aby powiększyć; na zielony przycisk z myślnikiem, aby pomniejszyć; na zielone strzałki, aby przejść do map sąsiednich.


METAR-TAF: